createdAt,value
2023-03-11T00:00:28.821Z,92.20
2023-03-11T00:02:58.336Z,92.20
2023-03-11T00:05:31.331Z,92.20
2023-03-11T00:07:59.461Z,92.20
2023-03-11T00:10:32.936Z,92.20
2023-03-11T00:13:01.428Z,92.20
2023-03-11T00:15:29.871Z,92.20
2023-03-11T00:17:58.040Z,92.20
2023-03-11T00:20:29.400Z,92.20
2023-03-11T00:22:57.985Z,92.20
2023-03-11T00:25:27.586Z,92.20
2023-03-11T00:27:55.030Z,92.20
2023-03-11T00:30:23.723Z,92.20
2023-03-11T00:32:53.398Z,92.20
2023-03-11T00:35:26.286Z,92.20
2023-03-11T00:37:59.683Z,92.20
2023-03-11T00:40:30.638Z,92.20
2023-03-11T00:42:58.418Z,92.20
2023-03-11T00:45:26.959Z,92.10
2023-03-11T00:47:55.161Z,91.60
2023-03-11T00:50:25.573Z,91.40
2023-03-11T00:52:53.549Z,91.60
2023-03-11T00:55:24.315Z,91.20
2023-03-11T00:57:56.533Z,91.80
2023-03-11T01:00:24.966Z,91.30
2023-03-11T01:02:53.350Z,91.30
2023-03-11T01:05:23.468Z,91.10
2023-03-11T01:07:50.944Z,90.50
2023-03-11T01:10:18.726Z,90.50
2023-03-11T01:12:46.019Z,90.10
2023-03-11T01:15:23.337Z,89.70
2023-03-11T01:17:50.879Z,90.00
2023-03-11T01:20:18.550Z,90.10
2023-03-11T01:22:46.175Z,90.00
2023-03-11T01:25:19.342Z,90.00
2023-03-11T01:27:47.513Z,90.20
2023-03-11T01:30:20.643Z,90.10
2023-03-11T01:32:48.457Z,90.30
2023-03-11T01:35:18.788Z,91.00
2023-03-11T01:37:46.749Z,91.20
2023-03-11T01:40:36.065Z,92.20
2023-03-11T01:43:05.129Z,92.20
2023-03-11T01:45:50.702Z,92.20
2023-03-11T01:48:17.988Z,92.20
2023-03-11T01:50:49.920Z,92.20
2023-03-11T01:53:18.778Z,92.20
2023-03-11T01:55:47.248Z,92.20
2023-03-11T01:58:23.326Z,92.20
2023-03-11T02:00:50.857Z,92.20
2023-03-11T02:03:34.560Z,92.20
2023-03-11T02:06:03.755Z,92.20
2023-03-11T02:08:34.459Z,92.20
2023-03-11T02:11:04.201Z,92.20
2023-03-11T02:13:35.535Z,92.20
2023-03-11T02:16:04.585Z,92.20
2023-03-11T02:18:32.570Z,92.20
2023-03-11T02:21:25.665Z,92.20
2023-03-11T02:24:15.932Z,92.20
2023-03-11T02:26:57.306Z,92.20
2023-03-11T02:29:27.074Z,92.20
2023-03-11T02:31:56.922Z,92.20
2023-03-11T02:34:27.264Z,92.20
2023-03-11T02:36:54.749Z,92.20
2023-03-11T02:39:40.066Z,92.20
2023-03-11T02:42:25.266Z,92.20
2023-03-11T02:45:14.229Z,92.20
2023-03-11T02:47:41.919Z,92.20
2023-03-11T02:50:14.134Z,92.20
2023-03-11T02:52:41.765Z,92.20
2023-03-11T02:55:12.143Z,92.20
2023-03-11T02:57:39.817Z,92.20
2023-03-11T03:00:11.446Z,92.20
2023-03-11T03:02:38.853Z,92.20
2023-03-11T03:05:06.691Z,92.20
2023-03-11T03:07:34.055Z,92.20
2023-03-11T03:10:01.313Z,92.20
2023-03-11T03:12:28.777Z,92.20
2023-03-11T03:14:56.109Z,92.20
2023-03-11T03:17:23.513Z,92.20
2023-03-11T03:19:50.909Z,92.20
2023-03-11T03:22:18.141Z,92.20
2023-03-11T03:24:45.430Z,92.20
2023-03-11T03:27:12.694Z,92.20
2023-03-11T03:29:39.908Z,92.20
2023-03-11T03:32:07.605Z,92.20
2023-03-11T03:34:35.361Z,92.20
2023-03-11T03:37:02.627Z,92.20
2023-03-11T03:39:30.776Z,92.20
2023-03-11T03:41:58.350Z,92.20
2023-03-11T03:44:25.753Z,92.20
2023-03-11T03:46:52.964Z,92.20
2023-03-11T03:49:20.233Z,92.20
2023-03-11T03:51:47.585Z,92.20
2023-03-11T03:54:15.881Z,92.20
2023-03-11T03:56:43.322Z,92.20
2023-03-11T03:59:10.622Z,92.20
2023-03-11T04:01:38.014Z,92.20
2023-03-11T04:04:05.494Z,92.20
2023-03-11T04:06:32.853Z,92.20
2023-03-11T04:09:00.406Z,92.20
2023-03-11T04:11:27.756Z,92.20
2023-03-11T04:13:56.086Z,92.20
2023-03-11T04:16:24.381Z,92.20
2023-03-11T04:18:51.774Z,92.20
2023-03-11T04:21:19.125Z,92.20
2023-03-11T04:23:46.496Z,92.20
2023-03-11T04:26:14.014Z,92.20
2023-03-11T04:28:41.551Z,92.20
2023-03-11T04:31:08.942Z,92.20
2023-03-11T04:33:36.310Z,92.20
2023-03-11T04:36:08.281Z,92.20
2023-03-11T04:38:36.079Z,92.20
2023-03-11T04:41:05.173Z,92.20
2023-03-11T04:43:33.729Z,92.20
2023-03-11T04:46:01.115Z,92.20
2023-03-11T04:48:28.651Z,92.20
2023-03-11T04:50:56.186Z,92.20
2023-03-11T04:53:24.219Z,92.20
2023-03-11T04:55:52.670Z,92.20
2023-03-11T04:58:20.920Z,92.20
2023-03-11T05:00:48.166Z,92.20
2023-03-11T05:03:15.810Z,92.20
2023-03-11T05:05:43.305Z,92.20
2023-03-11T05:08:10.641Z,92.20
2023-03-11T05:10:39.835Z,92.20
2023-03-11T05:13:07.151Z,92.20
2023-03-11T05:15:34.524Z,92.20
2023-03-11T05:18:01.807Z,92.20
2023-03-11T05:20:28.995Z,92.20
2023-03-11T05:22:56.493Z,92.20
2023-03-11T05:25:23.908Z,92.20
2023-03-11T05:27:51.183Z,92.20
2023-03-11T05:30:18.530Z,92.20
2023-03-11T05:32:46.219Z,92.20
2023-03-11T05:35:13.661Z,92.20
2023-03-11T05:37:41.224Z,92.20
2023-03-11T05:40:11.519Z,92.20
2023-03-11T05:42:41.548Z,92.20
2023-03-11T05:45:09.944Z,92.20
2023-03-11T05:47:37.317Z,92.20
2023-03-11T05:50:05.264Z,92.20
2023-03-11T05:52:34.270Z,92.20
2023-03-11T05:55:01.622Z,92.20
2023-03-11T05:57:29.081Z,92.20
2023-03-11T05:59:57.170Z,92.20
2023-03-11T06:02:24.715Z,92.20
2023-03-11T06:04:52.213Z,92.20
2023-03-11T06:07:19.579Z,92.20
2023-03-11T06:09:46.989Z,92.20
2023-03-11T06:12:14.368Z,92.20
2023-03-11T06:14:41.707Z,92.20
2023-03-11T06:17:09.362Z,92.20
2023-03-11T06:19:36.630Z,92.20
2023-03-11T06:22:03.864Z,92.20
2023-03-11T06:24:31.303Z,92.20
2023-03-11T06:26:58.688Z,92.20
2023-03-11T06:29:26.953Z,92.20
2023-03-11T06:31:54.295Z,92.20
2023-03-11T06:34:21.840Z,92.20
2023-03-11T06:36:49.105Z,92.20
2023-03-11T06:39:16.860Z,92.20
2023-03-11T06:41:44.232Z,92.20
2023-03-11T06:44:12.253Z,92.20
2023-03-11T06:46:39.894Z,92.20
2023-03-11T06:49:07.525Z,92.20
2023-03-11T06:51:35.222Z,92.20
2023-03-11T06:54:02.472Z,92.20
2023-03-11T06:56:29.848Z,92.20
2023-03-11T06:58:57.129Z,92.20
2023-03-11T07:01:26.332Z,92.20
2023-03-11T07:03:53.748Z,92.20
2023-03-11T07:06:23.817Z,92.20
2023-03-11T07:08:53.124Z,92.20
2023-03-11T07:11:25.726Z,92.20
2023-03-11T07:13:54.828Z,92.20
2023-03-11T07:16:27.847Z,92.20
2023-03-11T07:19:01.143Z,92.20
2023-03-11T07:21:30.294Z,92.20
2023-03-11T07:24:00.322Z,92.20
2023-03-11T07:26:29.420Z,92.20
2023-03-11T07:28:58.104Z,92.20
2023-03-11T07:31:28.382Z,92.20
2023-03-11T07:33:58.825Z,92.20
2023-03-11T07:36:27.165Z,92.20
2023-03-11T07:39:04.553Z,92.20
2023-03-11T07:41:36.118Z,92.20
2023-03-11T07:44:08.079Z,92.20
2023-03-11T07:46:36.709Z,92.20
2023-03-11T07:49:04.572Z,92.20
2023-03-11T07:51:34.883Z,92.20
2023-03-11T07:54:02.915Z,92.20
2023-03-11T07:56:34.245Z,92.20
2023-03-11T07:59:03.671Z,92.20
2023-03-11T08:01:36.815Z,92.20
2023-03-11T08:04:07.109Z,92.20
2023-03-11T08:06:37.928Z,92.20
2023-03-11T08:09:09.321Z,92.20
2023-03-11T08:11:37.656Z,92.20
2023-03-11T08:14:05.657Z,92.20
2023-03-11T08:16:33.403Z,92.20
2023-03-11T08:19:01.216Z,92.20
2023-03-11T08:21:32.465Z,92.20
2023-03-11T08:24:03.008Z,92.20
2023-03-11T08:26:32.317Z,92.20
2023-03-11T08:29:00.214Z,92.20
2023-03-11T08:31:30.824Z,92.20
2023-03-11T08:34:03.906Z,92.20
2023-03-11T08:36:32.205Z,92.20
2023-03-11T08:38:59.798Z,92.20
2023-03-11T08:41:28.010Z,92.20
2023-03-11T08:43:55.451Z,92.20
2023-03-11T08:46:33.434Z,92.20
2023-03-11T08:49:02.275Z,92.20
2023-03-11T08:51:34.120Z,92.20
2023-03-11T08:54:02.471Z,92.20
2023-03-11T08:56:31.020Z,92.20
2023-03-11T08:59:01.322Z,92.20
2023-03-11T09:01:30.155Z,92.20
2023-03-11T09:03:58.095Z,92.20
2023-03-11T09:06:25.882Z,92.20
2023-03-11T09:08:53.387Z,92.20
2023-03-11T09:11:22.808Z,92.20
2023-03-11T09:13:50.733Z,92.20
2023-03-11T09:16:24.219Z,92.20
2023-03-11T09:18:51.540Z,92.20
2023-03-11T09:21:19.091Z,92.20
2023-03-11T09:23:46.530Z,92.20
2023-03-11T09:26:14.513Z,92.20
2023-03-11T09:28:43.176Z,92.20
2023-03-11T09:31:10.567Z,92.20
2023-03-11T09:33:40.221Z,92.20
2023-03-11T09:36:08.991Z,92.20
2023-03-11T09:38:39.118Z,92.20
2023-03-11T09:41:18.731Z,92.20
2023-03-11T09:44:04.185Z,92.20
2023-03-11T09:46:45.163Z,92.20
2023-03-11T09:49:24.483Z,92.20
2023-03-11T09:52:04.940Z,92.20
2023-03-11T09:54:38.481Z,92.20
2023-03-11T09:57:10.032Z,92.20
2023-03-11T09:59:38.793Z,92.20
2023-03-11T10:02:06.855Z,92.20
2023-03-11T10:04:42.577Z,92.20
2023-03-11T10:07:24.240Z,92.20
2023-03-11T10:09:59.638Z,92.20
2023-03-11T10:12:54.132Z,92.20
2023-03-11T10:15:48.794Z,92.20
2023-03-11T10:18:43.367Z,92.20
2023-03-11T10:21:22.077Z,92.20
2023-03-11T10:24:14.789Z,92.20
2023-03-11T10:26:57.071Z,92.20
2023-03-11T10:29:45.768Z,92.20
2023-03-11T10:32:25.747Z,92.20
2023-03-11T10:35:04.656Z,92.20
2023-03-11T10:37:49.787Z,92.20
2023-03-11T10:40:30.617Z,92.20
2023-03-11T10:43:02.282Z,92.20
2023-03-11T10:45:36.924Z,92.20
2023-03-11T10:48:16.736Z,92.20
2023-03-11T10:51:12.663Z,92.20
2023-03-11T10:53:58.584Z,92.20
2023-03-11T10:56:35.457Z,92.20
2023-03-11T10:59:05.556Z,92.20
2023-03-11T11:01:33.295Z,92.20
2023-03-11T11:04:02.857Z,92.20
2023-03-11T11:06:33.021Z,92.20
2023-03-11T11:09:17.626Z,92.20
2023-03-11T11:12:06.303Z,92.20
2023-03-11T11:14:43.982Z,92.20
2023-03-11T11:17:37.518Z,92.20
2023-03-11T11:20:13.422Z,92.20
2023-03-11T11:22:52.723Z,92.20
2023-03-11T11:25:34.634Z,92.20
2023-03-11T11:28:17.015Z,92.20
2023-03-11T11:30:59.373Z,92.20
2023-03-11T11:33:39.600Z,92.20
2023-03-11T11:36:15.849Z,92.20
2023-03-11T11:38:43.524Z,92.20
2023-03-11T11:41:17.212Z,92.20
2023-03-11T11:44:06.661Z,92.20
2023-03-11T11:47:17.141Z,92.20
2023-03-11T11:49:57.428Z,92.20
2023-03-11T11:52:38.049Z,92.20
2023-03-11T11:55:20.623Z,92.20
2023-03-11T11:57:48.823Z,92.20
2023-03-11T12:00:28.662Z,92.20
2023-03-11T12:03:24.047Z,92.20
2023-03-11T12:06:07.543Z,92.20
2023-03-11T12:08:51.349Z,92.20
2023-03-11T12:11:47.562Z,92.20
2023-03-11T12:14:33.883Z,92.20
2023-03-11T12:17:04.266Z,92.20
2023-03-11T12:19:37.553Z,92.20
2023-03-11T12:22:35.916Z,92.20
2023-03-11T12:25:14.626Z,92.20
2023-03-11T12:28:23.334Z,92.20
2023-03-11T12:30:56.811Z,92.20
2023-03-11T12:33:24.202Z,92.20
2023-03-11T12:35:56.519Z,92.20
2023-03-11T12:38:35.721Z,92.20
2023-03-11T12:41:15.248Z,92.20
2023-03-11T12:43:43.262Z,92.20
2023-03-11T12:46:17.737Z,92.20
2023-03-11T12:49:09.658Z,92.20
2023-03-11T12:51:37.968Z,92.20
2023-03-11T12:54:31.082Z,92.20
2023-03-11T12:57:00.278Z,92.20
2023-03-11T12:59:48.873Z,92.20
2023-03-11T13:02:47.874Z,92.20
2023-03-11T13:05:30.692Z,92.20
2023-03-11T13:08:17.785Z,92.20
2023-03-11T13:10:47.399Z,92.20
2023-03-11T13:13:40.916Z,92.20
2023-03-11T13:16:29.333Z,92.20
2023-03-11T13:19:28.564Z,92.20
2023-03-11T13:22:00.557Z,92.20
2023-03-11T13:24:30.142Z,92.20
2023-03-11T13:27:03.372Z,92.20
2023-03-11T13:30:25.353Z,92.20
2023-03-11T13:33:14.634Z,92.20
2023-03-11T13:36:16.191Z,92.20
2023-03-11T13:39:02.732Z,92.20
2023-03-11T13:41:38.355Z,92.20
2023-03-11T13:44:20.482Z,92.20
2023-03-11T13:47:06.956Z,92.20
2023-03-11T13:49:52.768Z,92.20
2023-03-11T13:52:47.046Z,92.20
2023-03-11T13:55:25.877Z,92.20
2023-03-11T13:57:57.926Z,92.20
2023-03-11T14:00:30.919Z,92.20
2023-03-11T14:03:11.886Z,92.20
2023-03-11T14:05:45.820Z,92.20
2023-03-11T14:08:22.574Z,92.20
2023-03-11T14:10:58.620Z,92.20
2023-03-11T14:13:28.793Z,92.20
2023-03-11T14:16:06.263Z,92.20
2023-03-11T14:18:49.007Z,92.20
2023-03-11T14:21:19.858Z,92.20
2023-03-11T14:23:49.751Z,92.20
2023-03-11T14:26:24.307Z,92.20
2023-03-11T14:28:59.983Z,92.20
2023-03-11T14:31:47.072Z,92.20
2023-03-11T14:34:17.925Z,92.20
2023-03-11T14:36:51.158Z,92.20
2023-03-11T14:39:39.996Z,92.20
2023-03-11T14:42:26.931Z,92.20
2023-03-11T14:45:05.845Z,92.20
2023-03-11T14:47:52.644Z,92.20
2023-03-11T14:50:26.570Z,92.20
2023-03-11T14:52:53.957Z,92.20
2023-03-11T14:55:27.745Z,92.20
2023-03-11T14:58:15.777Z,92.20
2023-03-11T15:01:03.421Z,92.20
2023-03-11T15:03:33.913Z,92.20
2023-03-11T15:06:11.428Z,92.20
2023-03-11T15:08:46.805Z,92.20
2023-03-11T15:11:15.174Z,92.20
2023-03-11T15:13:47.577Z,92.20
2023-03-11T15:16:30.700Z,92.20
2023-03-11T15:19:02.717Z,92.20
2023-03-11T15:21:32.549Z,92.20
2023-03-11T15:24:06.884Z,92.20
2023-03-11T15:26:38.555Z,92.20
2023-03-11T15:29:17.136Z,92.20
2023-03-11T15:31:47.277Z,92.20
2023-03-11T15:34:17.373Z,92.20
2023-03-11T15:36:48.950Z,92.20
2023-03-11T15:39:28.380Z,92.20
2023-03-11T15:42:06.876Z,92.20
2023-03-11T15:45:01.708Z,92.20
2023-03-11T15:47:29.435Z,92.20
2023-03-11T15:49:57.022Z,92.20
2023-03-11T15:52:24.496Z,92.20
2023-03-11T15:54:55.718Z,92.20
2023-03-11T15:57:27.320Z,92.20
2023-03-11T15:59:57.927Z,92.20
2023-03-11T16:02:27.646Z,92.20
2023-03-11T16:04:56.698Z,92.20
2023-03-11T16:07:38.708Z,92.20
2023-03-11T16:10:08.440Z,92.20
2023-03-11T16:12:36.013Z,92.20
2023-03-11T16:15:04.447Z,92.20
2023-03-11T16:17:46.856Z,92.20
2023-03-11T16:20:17.622Z,92.20
2023-03-11T16:22:45.380Z,92.20
2023-03-11T16:25:23.580Z,92.20
2023-03-11T16:27:53.403Z,92.20
2023-03-11T16:30:21.678Z,92.20
2023-03-11T16:32:49.067Z,92.20
2023-03-11T16:35:17.291Z,92.20
2023-03-11T16:37:45.448Z,92.20
2023-03-11T16:40:16.832Z,92.20
2023-03-11T16:42:44.384Z,92.20
2023-03-11T16:45:14.080Z,92.20
2023-03-11T16:47:43.200Z,92.20
2023-03-11T16:50:11.359Z,92.20
2023-03-11T16:52:39.356Z,92.20
2023-03-11T16:55:07.762Z,92.20
2023-03-11T16:57:40.095Z,92.20
2023-03-11T17:00:10.350Z,92.20
2023-03-11T17:02:38.516Z,92.20
2023-03-11T17:05:06.862Z,92.20
2023-03-11T17:07:34.472Z,92.20
2023-03-11T17:10:02.975Z,92.20
2023-03-11T17:12:30.739Z,92.20
2023-03-11T17:14:58.402Z,92.20
2023-03-11T17:17:25.861Z,92.20
2023-03-11T17:19:53.216Z,92.20
2023-03-11T17:22:20.676Z,92.20
2023-03-11T17:24:47.930Z,92.20
2023-03-11T17:27:15.635Z,92.20
2023-03-11T17:29:42.963Z,92.20
2023-03-11T17:32:16.899Z,92.20
2023-03-11T17:34:44.830Z,92.20
2023-03-11T17:37:12.378Z,92.20
2023-03-11T17:39:39.822Z,92.20
2023-03-11T17:42:07.197Z,92.20
2023-03-11T17:44:50.247Z,92.20
2023-03-11T17:47:20.441Z,92.20
2023-03-11T17:49:49.187Z,92.20
2023-03-11T17:52:16.576Z,92.20
2023-03-11T17:54:44.400Z,92.20
2023-03-11T17:57:12.329Z,92.20
2023-03-11T17:59:39.732Z,92.20
2023-03-11T18:02:08.707Z,92.20
2023-03-11T18:04:36.032Z,92.20
2023-03-11T18:07:04.055Z,92.20
2023-03-11T18:09:31.368Z,92.20
2023-03-11T18:11:58.675Z,92.20
2023-03-11T18:14:26.299Z,92.20
2023-03-11T18:16:53.684Z,92.20
2023-03-11T18:19:21.205Z,92.20
2023-03-11T18:21:48.541Z,92.20
2023-03-11T18:24:15.785Z,92.20
2023-03-11T18:26:43.273Z,92.20
2023-03-11T18:29:10.607Z,92.20
2023-03-11T18:31:40.362Z,92.20
2023-03-11T18:34:13.708Z,92.20
2023-03-11T18:36:42.211Z,92.20
2023-03-11T18:39:14.312Z,92.20
2023-03-11T18:41:43.054Z,92.20
2023-03-11T18:44:11.372Z,92.20
2023-03-11T18:46:38.867Z,92.20
2023-03-11T18:49:06.278Z,92.20
2023-03-11T18:51:33.712Z,92.20
2023-03-11T18:54:01.712Z,92.20
2023-03-11T18:56:31.391Z,92.20
2023-03-11T18:58:59.994Z,92.20
2023-03-11T19:01:28.018Z,92.20
2023-03-11T19:03:58.009Z,92.20
2023-03-11T19:06:27.475Z,92.20
2023-03-11T19:08:55.997Z,92.20
2023-03-11T19:11:24.843Z,92.20
2023-03-11T19:13:56.858Z,92.20
2023-03-11T19:16:26.358Z,92.20
2023-03-11T19:18:55.462Z,92.20
2023-03-11T19:21:23.690Z,92.20
2023-03-11T19:23:53.100Z,92.20
2023-03-11T19:26:23.888Z,92.20
2023-03-11T19:28:55.837Z,92.20
2023-03-11T19:31:23.277Z,92.20
2023-03-11T19:33:51.564Z,92.20
2023-03-11T19:36:19.015Z,92.20
2023-03-11T19:38:47.671Z,92.20
2023-03-11T19:41:20.921Z,92.20
2023-03-11T19:43:48.565Z,92.20
2023-03-11T19:46:20.958Z,92.20
2023-03-11T19:48:48.419Z,92.20
2023-03-11T19:51:18.220Z,92.20
2023-03-11T19:53:46.723Z,92.20
2023-03-11T19:56:14.374Z,92.20
2023-03-11T19:58:43.976Z,92.20
2023-03-11T20:01:19.134Z,92.20
2023-03-11T20:03:47.074Z,92.20
2023-03-11T20:06:17.117Z,92.20
2023-03-11T20:08:45.492Z,92.20
2023-03-11T20:11:13.351Z,92.20
2023-03-11T20:13:43.349Z,92.20
2023-03-11T20:16:14.352Z,92.20
2023-03-11T20:18:43.325Z,92.20
2023-03-11T20:21:13.118Z,92.20
2023-03-11T20:23:41.709Z,92.20
2023-03-11T20:26:17.324Z,92.20
2023-03-11T20:28:44.879Z,92.20
2023-03-11T20:31:21.566Z,92.20
2023-03-11T20:33:50.710Z,92.20
2023-03-11T20:36:24.845Z,92.20
2023-03-11T20:38:54.335Z,92.20
2023-03-11T20:41:23.547Z,92.20
2023-03-11T20:43:57.930Z,92.20
2023-03-11T20:46:25.801Z,92.20
2023-03-11T20:48:53.660Z,92.20
2023-03-11T20:51:21.707Z,92.20
2023-03-11T20:53:50.644Z,92.20
2023-03-11T20:56:21.890Z,92.20
2023-03-11T20:58:51.578Z,92.20
2023-03-11T21:01:24.652Z,92.20
2023-03-11T21:03:57.554Z,92.20
2023-03-11T21:06:28.696Z,92.20
2023-03-11T21:08:58.142Z,92.20
2023-03-11T21:11:26.213Z,92.20
2023-03-11T21:13:55.104Z,92.20
2023-03-11T21:16:23.253Z,92.20
2023-03-11T21:18:50.764Z,92.20
2023-03-11T21:21:19.032Z,92.20
2023-03-11T21:23:47.602Z,92.20
2023-03-11T21:26:16.340Z,92.20
2023-03-11T21:28:47.161Z,92.20
2023-03-11T21:31:20.630Z,92.20
2023-03-11T21:33:48.710Z,92.20
2023-03-11T21:36:17.336Z,92.20
2023-03-11T21:38:46.422Z,92.20
2023-03-11T21:41:24.270Z,92.20
2023-03-11T21:43:53.253Z,92.20
2023-03-11T21:46:32.338Z,92.20
2023-03-11T21:49:01.463Z,92.20
2023-03-11T21:51:29.443Z,92.20
2023-03-11T21:53:57.084Z,92.20
2023-03-11T21:56:25.180Z,92.20
2023-03-11T21:58:54.193Z,92.20
2023-03-11T22:01:21.613Z,92.20
2023-03-11T22:03:49.114Z,92.20
2023-03-11T22:06:16.748Z,92.20
2023-03-11T22:08:44.268Z,92.20
2023-03-11T22:11:17.977Z,92.20
2023-03-11T22:13:51.390Z,92.20
2023-03-11T22:16:24.547Z,92.20
2023-03-11T22:18:52.489Z,92.20
2023-03-11T22:21:21.039Z,92.20
2023-03-11T22:23:48.745Z,92.20
2023-03-11T22:26:16.782Z,92.20
2023-03-11T22:28:44.169Z,92.20
2023-03-11T22:31:14.235Z,92.20
2023-03-11T22:33:41.574Z,92.20
2023-03-11T22:36:09.824Z,92.20
2023-03-11T22:38:39.402Z,92.20
2023-03-11T22:41:09.095Z,92.20
2023-03-11T22:43:37.048Z,92.20
2023-03-11T22:46:06.197Z,92.20
2023-03-11T22:48:34.217Z,92.20
2023-03-11T22:51:02.383Z,92.20
2023-03-11T22:53:29.908Z,92.20
2023-03-11T22:55:57.761Z,92.20
2023-03-11T22:58:25.263Z,92.20
2023-03-11T23:00:52.586Z,92.20
2023-03-11T23:03:19.892Z,92.20
2023-03-11T23:05:47.334Z,92.20
2023-03-11T23:08:17.020Z,92.20
2023-03-11T23:10:49.745Z,92.20
2023-03-11T23:13:17.369Z,92.20
2023-03-11T23:15:46.399Z,92.20
2023-03-11T23:18:14.847Z,92.20
2023-03-11T23:20:43.651Z,92.20
2023-03-11T23:23:12.751Z,92.20
2023-03-11T23:25:41.994Z,92.20
2023-03-11T23:28:09.656Z,92.20
2023-03-11T23:30:37.817Z,92.20
2023-03-11T23:33:05.233Z,92.20
2023-03-11T23:35:33.602Z,92.20
2023-03-11T23:38:01.482Z,92.20
2023-03-11T23:40:28.770Z,92.20
2023-03-11T23:42:56.249Z,92.20
2023-03-11T23:45:23.998Z,92.20
2023-03-11T23:47:51.300Z,92.20
2023-03-11T23:50:19.236Z,92.20
2023-03-11T23:52:46.560Z,92.20
2023-03-11T23:55:14.186Z,92.20
2023-03-11T23:57:41.571Z,92.20
